Fylm sksy kyr klft

Release Calendar Top 250 Movies Most Popular Movies Browse Movies by Genre Top Box Office Showtimes & Tickets Movie News India Movie Spotlight. ... head of original film: Sky Tom Peck ... production assistant: las vegas unit Gareth Playford ... facilities manager Rosie Robinson ... cashier: dailies ....

Company profile for installer Sky System Kft. - showing the company's contact details and types of installation undertaken. ENF Solar. Language: ... Sky System. Sky System Kft. Kondorosi út 3, 1116, Budapest Click to show company phone https://skysystem.hu Hungary : Business Details97 minutes [1] Country. China. Language. Mandarin. Box office. $24.8 million [2] [3] Skyfire ( Chinese: 天·火; pinyin: Tiānhuǒ) is a 2019 Chinese disaster action film about a volcanic eruption at a resort. [4] It is directed by Simon West, written by Wei Bu and Sidney King, and stars Wang Xueqi, Hannah Quinlivan, Shawn Dou, and Jason Isaacs.

Did you know?

Liquid Sky. Liquid Sky is a 1982 American independent science fiction film directed by Slava Tsukerman and starring Anne Carlisle and Paula E. Sheppard. [1] It debuted at the Montreal Film festival in August 1982 and was well received at several film festivals thereafter. [2] It was produced with a budget of $500,000.KLFT : 260353Z AUTO VRB03KT 10SM CLR 27/26 A2987 RMK AO2 SLP114 T02720256 KARA 12nm SE : 260353Z AUTO 14004KT 5SM BR CLR 25/24 A2987 RMK AO2 SLP114 T02500239 K0R3 15nm S : 118.875 No observation available KIYA 15nm S : 260355Z AUTO 16006KT 10SM CLR 26/26 A2986 RMK AO2 T02620258 $ TAF;KLFT is an FM non-commercial radio station broadcasting at 90.5 MHz. The station is licensed to Kaplan, LA. Station Coverage Map. Nearby Radio Stations. KAJN 102.9 FM, 960 The Gator, Planet Radio 105-ONE, KYBG 102.1 FM, 97.3 The Dawg, KYMK 106.3 FM, WHFG 91.3 FM, News Radio 96.5, KSIG 1450 AM, KNHS 93.1 FM.Lucas Watson. Actor: Crewcraft. KYRSp33dy is one of the founding members of the actors association known as 'The Crew'. Mistah Speedy also helped found Focus Fuel. He is the highest paid streamer of all time, with Mr Broccolini following close behind. He is best known for playing Palworld and The Purge (which is every Friday).

WINCHESTER, Ky. — If you were outside in central Kentucky on Friday morning, chances are you may have noticed something strange in the sky.Christy Arnold was in Winchester, Kentucky at 7:30 a.m ...Get the KLFY app Download via Google Play Download via Apple App StoreMercury Jets is an on demand air charter provider specializing in private jet and turboprop charters in Lafayette Regional Airport. Lafayette Regional Airport (LFT, KLFT) is a large public airport two miles from downtown Lafayette in the U.S. state of Louisiana. The airport has a road connection to hotels and attractions, via Interstate 90.Sky Sharks is a 2020 German science fiction comedy horror film directed by Marc Fehse and starring Robert LaSardo, Cary-Hiroyuki Tagawa, Lynn Lowry, Lar Park Lincoln, Nick Principe, Michaela Schaffrath and Charles Rettinghaus. Plot.Watch KLFY News 10, the local news leader in Lafayette, La, for the latest stories, weather, sports, and more on YouTube.

fylm.ai Lite is a state-of-the-art, AI assisted colour editor and LUT creator in the cloud offering the absolutely easiest way to establish a show look for colour managed workflows. Export your look as a LUT, XMP profile or Capture One style.KLFY-TV. / 30.32222°N 92.28306°W / 30.32222; -92.28306. KLFY-TV (channel 10) is a television station in Lafayette, Louisiana, United States, affiliated with CBS and owned by Nexstar Media Group. The station's studios are located on Eraste Landry Road in Lafayette, and its transmitter is located in Maxie, north of Rayne . ….

Reader Q&A - also see RECOMMENDED ARTICLES & FAQs. Fylm sksy kyr klft. Possible cause: Not clear fylm sksy kyr klft.

Fra de største filmstudier i verden. Først med prisvindende, eksklusive amerikanske serier. Her finder du de største storfilm, du ikke kan streame andre steder. De mest populære og nye lokale originalserier og film. Højtelskede familiefavoritter samlet på ét sted. Tilmeld dig nu.

500 cégfigyelés. 202 EUR + 27% Áfa. 256 EUR. Fizessen bankkártyával vagy és használja a rendszert azonnal! TI & KY Kereskedelmi és Szolgáltató Korlátolt Felelősségű Társaság - rövid céginformáció 2024.04.10 napon.Join the Sky News Breakfast team live from 7am-10am, covering news from around the world and Westminster as well as featuring the morning's biggest interview...

namso gen. Color Grading. Finally out of beta, fylm.ai is a cloud-based color grading platform that uses deep learning algorithms to enhance the look of your footage. Experienced colorists, independent filmmakers, and beginners can quickly and easily design, collaborate, and finish their projects all inside of their browsers. so if ibest stocks under dollar20 One of the surprise horror hits of the past few years, Smile is a relentless psychological thriller that, despite having a slightly silly central 'gimmick' (the film's evil presence manifests itself as a creepy smile on the face of an otherwise normal person), quickly establishes an atmosphere full of dread, paranoia and discomfort that doesn't let up until the end. sks albwrnw Before contacting us, make sure that your game launches properly without SKSE first. Also, attach skse.log, skse_loader.log, and skse_steam_loader.log (found in My Documents/My Games/Skyrim/SKSE/) to any support requests. Entire Team. Send email to: [email protected]. Ian (ianpatt) Send email to: [email protected]. Stephen (behippo ...Sky News delivers breaking news, headlines and top stories from business, politics, entertainment and more in the UK and worldwide. aflam sks alarbyhdanlwd fylm swpr kharjysks akhwam Kapcsolatfelvétel a SkyShowtime-mal. Hiszünk abban, hogy akkor tudunk a lehető leggyorsabban és leghatékonyabban segíteni neked, ha e-mailben vagy élő csevegésben keresel minket – így nem kell többé hosszan várakoznod a vonal túloldalán. Ha közvetlenül szeretnél velünk beszélni, látogass el a „Lépj velünk kapcsolatba ...Általános információk Sky System Kft. Banks. Raiffeisen Bank Zártkörűen Működő Részvénytársaság. Import area. Közép-Kelet-Európa, Nyugat-Európa, Vilàgszerte. Cseh Köztársaság, Németország. Executives - Sky System Kft. Buy the executives list from same sector. sks shwath Address: 16405 Haven Rd, Little Falls, MN 56345. Phone number: (320) 632-2992. Website: fallsradio.com. Listen to AM 960 KLTF News/Talk radio station on computer, mobile phone or tablet. sksy khshn grwhynewroman numerals for 1964imagenes de buenos dias dios te bendiga KLFT : 250414Z 22003KT 4SM BR CLR 14/14 A2982 RMK AO2 T01390139 KARA 12nm SE : 250406Z AUTO 00000KT 10SM BKN009 16/15 A2981 RMK AO2 T01560150 K0R3 15nm S : 118.875 No observation available KIYA 15nm S : 250415Z AUTO 00000KT 1SM BR BKN007 15/13 A2983 RMK AO2 VIS 1/2V3 T01470131 TAF;